createdAt,value
2023-11-18T00:00:04.782Z,107.28
2023-11-18T00:05:18.789Z,71.22
2023-11-18T00:10:26.407Z,10.70
2023-11-18T00:15:36.108Z,13.18
2023-11-18T00:20:44.459Z,9.65
2023-11-18T00:25:51.575Z,10.95
2023-11-18T00:30:58.585Z,10.93
2023-11-18T00:36:09.065Z,10.60
2023-11-18T00:41:16.442Z,11.48
2023-11-18T00:46:23.823Z,11.70
2023-11-18T00:51:32.110Z,12.32
2023-11-18T00:56:38.867Z,7.82
2023-11-18T01:01:46.050Z,9.02
2023-11-18T01:06:54.491Z,8.57
2023-11-18T01:12:08.090Z,8.20
2023-11-18T01:17:17.966Z,10.68
2023-11-18T01:22:26.052Z,7.25
2023-11-18T01:27:34.766Z,7.97
2023-11-18T01:32:42.646Z,9.40
2023-11-18T01:37:50.833Z,9.13
2023-11-18T01:42:57.481Z,9.10
2023-11-18T01:48:04.462Z,8.10
2023-11-18T01:53:15.554Z,7.55
2023-11-18T01:58:24.574Z,7.75
2023-11-18T02:03:32.028Z,7.25
2023-11-18T02:08:42.974Z,7.47
2023-11-18T02:13:54.039Z,7.68
2023-11-18T02:19:01.679Z,8.95
2023-11-18T02:24:11.160Z,9.57
2023-11-18T02:29:19.883Z,7.88
2023-11-18T02:34:34.076Z,7.43
2023-11-18T02:39:45.944Z,9.40
2023-11-18T02:45:01.113Z,6.88
2023-11-18T02:50:12.408Z,6.13
2023-11-18T02:55:21.264Z,5.88
2023-11-18T03:00:30.635Z,5.40
2023-11-18T03:10:48.339Z,6.07
2023-11-18T03:15:58.379Z,4.07
2023-11-18T03:21:08.084Z,4.50
2023-11-18T03:26:15.972Z,3.65
2023-11-18T03:31:25.060Z,4.55
2023-11-18T03:36:31.483Z,4.25
2023-11-18T03:41:38.937Z,5.18
2023-11-18T03:46:49.438Z,3.45
2023-11-18T03:51:56.210Z,4.60
2023-11-18T03:57:02.829Z,4.95
2023-11-18T04:02:12.752Z,5.22
2023-11-18T04:07:20.169Z,4.03
2023-11-18T04:12:28.219Z,4.55
2023-11-18T04:17:39.689Z,4.35
2023-11-18T04:22:47.174Z,4.88
2023-11-18T04:27:57.724Z,5.68
2023-11-18T04:33:05.955Z,5.00
2023-11-18T04:38:12.651Z,5.38
2023-11-18T04:43:25.399Z,5.20
2023-11-18T04:48:41.712Z,3.27
2023-11-18T04:53:49.828Z,4.93
2023-11-18T04:59:02.425Z,4.20
2023-11-18T05:04:15.108Z,8.43
2023-11-18T05:09:22.223Z,3.78
2023-11-18T05:14:30.279Z,4.57
2023-11-18T05:19:38.378Z,4.20
2023-11-18T05:24:47.179Z,4.55
2023-11-18T05:29:56.957Z,4.45
2023-11-18T05:35:06.572Z,4.25
2023-11-18T05:40:17.268Z,3.85
2023-11-18T05:45:33.389Z,4.05
2023-11-18T05:50:41.463Z,3.85
2023-11-18T05:55:51.423Z,3.67
2023-11-18T06:00:59.522Z,4.32
2023-11-18T06:06:09.402Z,4.93
2023-11-18T06:11:19.161Z,11.70
2023-11-18T06:16:28.430Z,10.07
2023-11-18T06:21:41.005Z,7.43
2023-11-18T06:26:50.924Z,5.95
2023-11-18T06:31:59.149Z,6.65
2023-11-18T06:37:08.660Z,6.22
2023-11-18T06:42:15.586Z,5.90
2023-11-18T06:47:22.220Z,5.05
2023-11-18T06:52:30.580Z,4.25
2023-11-18T06:57:37.447Z,5.50
2023-11-18T07:02:44.203Z,5.40
2023-11-18T07:07:52.391Z,6.18
2023-11-18T07:13:01.393Z,6.18
2023-11-18T07:23:24.932Z,6.43
2023-11-18T07:28:35.760Z,7.60
2023-11-18T07:33:50.918Z,4.70
2023-11-18T07:39:02.612Z,7.10
2023-11-18T07:44:12.165Z,6.70
2023-11-18T07:49:19.003Z,9.35
2023-11-18T07:54:30.446Z,8.27
2023-11-18T07:59:39.247Z,10.13
2023-11-18T08:04:51.244Z,9.07
2023-11-18T08:15:14.039Z,8.65
2023-11-18T08:20:40.995Z,8.32
2023-11-18T08:26:13.774Z,12.32
2023-11-18T08:31:46.360Z,6.85
2023-11-18T08:37:02.560Z,6.70
2023-11-18T08:43:36.306Z,7.60
2023-11-18T08:49:50.513Z,6.35
2023-11-18T08:55:48.887Z,9.48
2023-11-18T09:01:33.257Z,10.77
2023-11-18T09:07:01.729Z,12.35
2023-11-18T09:12:53.876Z,7.85
2023-11-18T09:19:38.647Z,6.70
2023-11-18T09:32:45.694Z,9.77
2023-11-18T09:39:26.999Z,10.00
2023-11-18T09:51:18.601Z,11.13
2023-11-18T09:56:58.913Z,11.95
2023-11-18T10:02:08.501Z,14.05
2023-11-18T10:08:34.235Z,9.70
2023-11-18T10:15:13.261Z,12.02
2023-11-18T10:21:02.613Z,10.35
2023-11-18T10:26:42.055Z,8.95
2023-11-18T10:32:29.898Z,10.50
2023-11-18T10:38:09.655Z,10.57
2023-11-18T10:43:30.850Z,11.43
2023-11-18T10:48:49.880Z,9.23
2023-11-18T10:54:52.164Z,9.85
2023-11-18T11:00:20.106Z,12.25
2023-11-18T11:06:28.089Z,14.73
2023-11-18T11:12:26.192Z,15.55
2023-11-18T11:18:11.451Z,16.33
2023-11-18T11:23:38.746Z,12.52
2023-11-18T11:35:20.663Z,11.35
2023-11-18T11:41:21.122Z,10.23
2023-11-18T11:46:37.146Z,11.38
2023-11-18T11:51:56.683Z,11.65
2023-11-18T11:57:07.395Z,14.73
2023-11-18T12:02:25.911Z,15.40
2023-11-18T12:07:40.573Z,14.87
2023-11-18T12:12:47.336Z,13.35
2023-11-18T12:18:21.915Z,13.38
2023-11-18T12:23:28.915Z,16.38
2023-11-18T12:28:39.949Z,14.82
2023-11-18T12:34:11.126Z,14.30
2023-11-18T12:39:55.384Z,14.57
2023-11-18T12:45:33.625Z,13.50
2023-11-18T12:50:48.080Z,11.60
2023-11-18T12:55:57.502Z,17.27
2023-11-18T13:01:04.822Z,10.40
2023-11-18T13:06:21.957Z,15.07
2023-11-18T13:11:31.195Z,13.20
2023-11-18T13:16:43.155Z,16.35
2023-11-18T13:21:59.536Z,13.10
2023-11-18T13:27:08.675Z,13.15
2023-11-18T13:32:16.876Z,14.38
2023-11-18T13:37:26.535Z,15.65
2023-11-18T13:42:35.204Z,14.40
2023-11-18T13:47:46.501Z,13.32
2023-11-18T13:52:55.738Z,13.40
2023-11-18T13:58:06.557Z,14.32
2023-11-18T14:03:14.059Z,15.90
2023-11-18T14:08:23.483Z,15.05
2023-11-18T14:13:32.547Z,12.27
2023-11-18T14:23:52.167Z,13.90
2023-11-18T14:29:00.488Z,15.63
2023-11-18T14:34:08.644Z,12.30
2023-11-18T14:39:19.657Z,16.53
2023-11-18T14:44:27.423Z,12.38
2023-11-18T14:49:34.866Z,13.43
2023-11-18T14:54:43.779Z,18.70
2023-11-18T14:59:51.510Z,14.65
2023-11-18T15:04:59.228Z,16.58
2023-11-18T15:10:12.577Z,14.90
2023-11-18T15:15:22.574Z,14.02
2023-11-18T15:20:30.218Z,15.93
2023-11-18T15:25:39.293Z,14.75
2023-11-18T15:30:46.926Z,18.95
2023-11-18T15:35:53.957Z,17.27
2023-11-18T15:41:02.572Z,14.93
2023-11-18T15:46:12.735Z,19.25
2023-11-18T15:51:21.591Z,18.60
2023-11-18T15:56:30.245Z,16.85
2023-11-18T16:01:37.508Z,17.65
2023-11-18T16:06:44.292Z,18.92
2023-11-18T16:11:53.954Z,21.02
2023-11-18T16:17:02.270Z,17.40
2023-11-18T16:22:10.388Z,15.15
2023-11-18T16:27:19.566Z,21.98
2023-11-18T16:32:27.239Z,18.45
2023-11-18T16:37:34.781Z,19.93
2023-11-18T16:42:43.702Z,16.65
2023-11-18T16:47:52.665Z,21.42
2023-11-18T16:53:01.974Z,20.80
2023-11-18T16:58:14.305Z,17.83
2023-11-18T17:03:24.974Z,17.77
2023-11-18T17:08:32.838Z,15.50
2023-11-18T17:13:42.930Z,19.70
2023-11-18T17:18:52.467Z,21.85
2023-11-18T17:24:02.076Z,23.95
2023-11-18T17:29:11.775Z,30.63
2023-11-18T17:34:20.603Z,32.30
2023-11-18T17:39:28.752Z,34.10
2023-11-18T17:44:40.605Z,31.98
2023-11-18T17:49:49.141Z,32.25
2023-11-18T17:54:56.869Z,37.38
2023-11-18T18:00:13.757Z,27.67
2023-11-18T18:05:31.525Z,30.13
2023-11-18T18:10:39.305Z,41.03
2023-11-18T18:15:49.709Z,45.22
2023-11-18T18:21:00.570Z,40.85
2023-11-18T18:26:11.927Z,29.67
2023-11-18T18:31:23.393Z,30.92
2023-11-18T18:36:31.548Z,28.65
2023-11-18T18:46:52.812Z,25.35
2023-11-18T18:51:59.699Z,24.48
2023-11-18T18:57:10.612Z,26.50
2023-11-18T19:02:20.604Z,20.20
2023-11-18T19:07:35.502Z,22.92
2023-11-18T19:12:49.986Z,25.25
2023-11-18T19:18:06.313Z,24.88
2023-11-18T19:23:14.662Z,23.85
2023-11-18T19:28:26.984Z,27.10
2023-11-18T19:33:37.346Z,25.48
2023-11-18T19:38:48.716Z,23.73
2023-11-18T19:43:58.561Z,27.00
2023-11-18T19:49:08.401Z,20.00
2023-11-18T19:54:16.428Z,23.70
2023-11-18T19:59:23.822Z,21.63
2023-11-18T20:04:32.885Z,19.98
2023-11-18T20:09:41.123Z,23.77
2023-11-18T20:14:50.924Z,58.78
2023-11-18T20:20:01.996Z,51.78
2023-11-18T20:25:12.800Z,72.68
2023-11-18T20:30:27.402Z,72.40
2023-11-18T20:35:36.776Z,68.93
2023-11-18T20:40:46.779Z,45.67
2023-11-18T20:45:56.181Z,37.17
2023-11-18T20:51:06.895Z,43.92
2023-11-18T20:56:14.925Z,47.60
2023-11-18T21:01:24.782Z,39.47
2023-11-18T21:06:34.151Z,37.90
2023-11-18T21:11:42.440Z,32.40
2023-11-18T21:16:51.818Z,34.22
2023-11-18T21:27:13.966Z,33.85
2023-11-18T21:32:23.696Z,32.58
2023-11-18T21:37:32.948Z,37.35
2023-11-18T21:42:40.679Z,31.85
2023-11-18T21:47:50.824Z,32.35
2023-11-18T21:53:08.607Z,35.72
2023-11-18T21:58:18.456Z,30.00
2023-11-18T22:03:26.485Z,30.88
2023-11-18T22:08:36.632Z,28.93
2023-11-18T22:13:46.513Z,27.98
2023-11-18T22:18:54.075Z,27.05
2023-11-18T22:24:02.694Z,26.27
2023-11-18T22:29:09.929Z,26.05
2023-11-18T22:34:16.774Z,25.40
2023-11-18T22:39:25.609Z,27.40
2023-11-18T22:44:34.239Z,24.33
2023-11-18T22:54:51.805Z,32.28
2023-11-18T23:00:00.330Z,35.35
2023-11-18T23:05:14.742Z,34.10
2023-11-18T23:10:24.682Z,30.48
2023-11-18T23:15:31.864Z,31.83
2023-11-18T23:20:39.480Z,32.58
2023-11-18T23:25:47.828Z,32.90
2023-11-18T23:31:00.844Z,29.77
2023-11-18T23:36:09.187Z,30.02
2023-11-18T23:41:18.367Z,34.63
2023-11-18T23:46:28.488Z,38.58
2023-11-18T23:51:36.409Z,33.53
2023-11-18T23:56:45.295Z,35.03
